Nashville Plt, Maine
Current Conditions -  °F | °C
As of 5:15 PM on Saturday 25 Oct 2014 (Local Time) from KPQI Reporting Station
Overcast Overcast  
Wind Chill: 45°   Ceiling: 9000
Heat Index: 45°   Visibility: 10mi
Dew Point: 37°   Wind: 3mph
Humidity: 76%   Direction: 100°E
Pressure: 29.54"   Gusts: NA
Location:  46.6213°N, 68.5555°W
Report Text: KPQI 252115Z AUTO 10003KT 10SM FEW012 SCT060 OVC090 07/03 A2954 RMK AO1
Loading
Personal Weather Stations






























Interactive Weather Map
Tropical Storm Tracking
New forecast layout! Learn more

10-Day Weather Forecast

Advertisements
Track Severe Weather on mobile